Time;durP1;ratioP1;P1;durP2;ratioP2;P2;SDS_P1;SDS_P2;PMS_P1;PMS_P2;Temp;Humidity;BMP_temperature;BMP_pressure;BME280_temperature;BME280_humidity;BME280_pressure;Samples;Min_cycle;Max_cycle;Signal;HPM_P1;HPM_P2
2022/10/08 00:01:39;;;;;;;2.50;1.00;;;;;;;;;;4961169;28;87013;-55
2022/10/08 00:04:07;;;;;;;0.70;0.60;;;;;;;;;;4961236;28;87051;-56
2022/10/08 00:06:35;;;;;;;0.80;0.57;;;;;;;;;;4960918;28;90298;-54
2022/10/08 00:09:05;;;;;;;1.87;0.90;;;;;;;;;;4961414;28;89613;-56
2022/10/08 00:11:35;;;;;;;1.17;0.73;;;;;;;;;;4961910;28;86881;-55
2022/10/08 00:14:03;;;;;;;1.00;0.70;;;;;;;;;;4961763;28;87027;-54
2022/10/08 00:16:32;;;;;;;1.03;0.67;;;;;;;;;;4961734;28;87770;-55
2022/10/08 00:19:01;;;;;;;0.93;0.80;;;;;;;;;;4961149;28;87740;-55
2022/10/08 00:21:29;;;;;;;0.70;0.70;;;;;;;;;;4961695;28;87024;-55
2022/10/08 00:23:58;;;;;;;0.97;0.80;;;;;;;;;;4962098;28;86367;-55
2022/10/08 00:26:28;;;;;;;0.50;0.50;;;;;;;;;;4960322;28;88990;-55
2022/10/08 00:28:57;;;;;;;0.50;0.50;;;;;;;;;;4960717;28;87409;-55
2022/10/08 00:31:26;;;;;;;0.73;0.73;;;;;;;;;;4960175;28;88337;-54
2022/10/08 00:33:55;;;;;;;1.17;0.93;;;;;;;;;;4961505;28;86944;-56
2022/10/08 00:36:23;;;;;;;0.70;0.70;;;;;;;;;;4960505;28;88726;-56
2022/10/08 00:38:55;;;;;;;1.43;1.00;;;;;;;;;;4961637;28;89029;-55
2022/10/08 00:41:24;;;;;;;1.13;0.80;;;;;;;;;;4961158;28;87131;-55
2022/10/08 00:43:54;;;;;;;0.63;0.63;;;;;;;;;;4961611;28;87060;-55
2022/10/08 00:46:24;;;;;;;0.87;0.60;;;;;;;;;;4959966;28;87916;-55
2022/10/08 00:48:55;;;;;;;1.03;0.80;;;;;;;;;;4941261;28;89001;-55
2022/10/08 00:51:24;;;;;;;1.87;0.77;;;;;;;;;;4944221;28;87018;-55
2022/10/08 00:53:52;;;;;;;2.37;0.43;;;;;;;;;;4960876;28;87029;-55
2022/10/08 00:56:20;;;;;;;0.73;0.70;;;;;;;;;;4959970;28;89036;-55
2022/10/08 00:58:49;;;;;;;1.10;0.57;;;;;;;;;;4960851;28;90046;-55
2022/10/08 01:01:18;;;;;;;0.63;0.63;;;;;;;;;;4961260;28;87009;-54
2022/10/08 01:03:47;;;;;;;0.97;0.60;;;;;;;;;;4962924;28;87138;-55
2022/10/08 01:06:18;;;;;;;0.50;0.50;;;;;;;;;;4965210;28;87892;-54
2022/10/08 01:08:48;;;;;;;1.13;0.60;;;;;;;;;;4965131;28;88976;-55
2022/10/08 01:11:20;;;;;;;1.20;0.43;;;;;;;;;;4965075;28;88522;-56
2022/10/08 01:13:50;;;;;;;1.37;0.80;;;;;;;;;;4965314;28;86152;-55
2022/10/08 01:16:22;;;;;;;0.93;0.80;;;;;;;;;;4964736;28;87796;-55
2022/10/08 01:18:52;;;;;;;2.77;0.70;;;;;;;;;;4965959;28;87012;-55
2022/10/08 01:21:23;;;;;;;1.90;1.10;;;;;;;;;;4962841;28;88166;-55
2022/10/08 01:24:00;;;;;;;2.50;1.10;;;;;;;;;;4963614;28;87078;-54
2022/10/08 01:26:44;;;;;;;1.53;0.60;;;;;;;;;;4964524;28;88900;-54
2022/10/08 01:29:15;;;;;;;0.60;0.60;;;;;;;;;;4962753;28;88732;-54
2022/10/08 01:31:44;;;;;;;0.60;0.57;;;;;;;;;;4963994;28;87054;-54
2022/10/08 01:34:14;;;;;;;0.60;0.60;;;;;;;;;;4964636;28;87026;-55
2022/10/08 01:36:43;;;;;;;1.30;0.83;;;;;;;;;;4963271;28;87857;-54
2022/10/08 01:39:12;;;;;;;1.37;0.83;;;;;;;;;;4964388;28;88655;-55
2022/10/08 01:41:40;;;;;;;4.10;0.73;;;;;;;;;;4963462;28;87165;-55
2022/10/08 01:44:09;;;;;;;1.30;0.90;;;;;;;;;;4963851;28;87101;-54
2022/10/08 01:46:39;;;;;;;0.40;0.40;;;;;;;;;;4963382;28;90164;-54
2022/10/08 01:49:09;;;;;;;3.30;0.80;;;;;;;;;;4964326;28;89284;-54
2022/10/08 01:51:37;;;;;;;1.10;0.80;;;;;;;;;;4963451;28;89325;-54
2022/10/08 01:54:07;;;;;;;0.53;0.50;;;;;;;;;;4964528;28;87012;-55
2022/10/08 01:56:35;;;;;;;1.50;1.17;;;;;;;;;;4963788;28;89037;-55
2022/10/08 01:59:04;;;;;;;1.70;0.90;;;;;;;;;;4963794;28;88720;-55
2022/10/08 02:01:33;;;;;;;0.87;0.67;;;;;;;;;;4964294;28;86999;-55
2022/10/08 02:06:49;;;;;;;0.67;0.67;;;;;;;;;;4964263;28;87602;-55
2022/10/08 02:09:18;;;;;;;1.03;0.57;;;;;;;;;;4964056;28;88949;-55
2022/10/08 02:11:46;;;;;;;2.30;0.60;;;;;;;;;;4964160;28;87771;-56
2022/10/08 02:14:14;;;;;;;1.73;1.30;;;;;;;;;;4963997;28;86901;-56
2022/10/08 02:16:43;;;;;;;0.97;0.60;;;;;;;;;;4963836;28;89159;-55
2022/10/08 02:19:13;;;;;;;0.80;0.80;;;;;;;;;;4963745;28;87958;-55
2022/10/08 02:21:41;;;;;;;0.43;0.43;;;;;;;;;;4964348;28;87106;-54
2022/10/08 02:24:11;;;;;;;0.60;0.60;;;;;;;;;;4963708;28;87013;-54
2022/10/08 02:26:40;;;;;;;0.87;0.70;;;;;;;;;;4963303;28;89080;-54
2022/10/08 02:29:11;;;;;;;1.43;1.17;;;;;;;;;;4963980;28;86441;-54
2022/10/08 02:31:40;;;;;;;1.40;0.60;;;;;;;;;;4963096;28;87147;-54
2022/10/08 02:34:09;;;;;;;0.80;0.80;;;;;;;;;;4963831;28;87069;-54
2022/10/08 02:36:39;;;;;;;0.97;0.87;;;;;;;;;;4963017;28;89697;-54
2022/10/08 02:39:07;;;;;;;2.93;1.13;;;;;;;;;;4963533;28;88606;-54
2022/10/08 02:41:37;;;;;;;0.90;0.90;;;;;;;;;;4963515;28;86997;-54
2022/10/08 02:44:06;;;;;;;1.27;0.67;;;;;;;;;;4965403;28;88334;-55
2022/10/08 02:46:35;;;;;;;2.47;0.83;;;;;;;;;;4963110;28;87711;-54
2022/10/08 02:49:03;;;;;;;3.27;0.80;;;;;;;;;;4963126;28;88771;-55
2022/10/08 02:51:32;;;;;;;0.70;0.50;;;;;;;;;;4963761;28;87010;-55
2022/10/08 02:54:03;;;;;;;0.80;0.80;;;;;;;;;;4962373;28;86465;-56
2022/10/08 02:56:32;;;;;;;0.90;0.87;;;;;;;;;;4962420;28;87557;-54
2022/10/08 02:59:01;;;;;;;1.40;0.50;;;;;;;;;;4963565;28;88913;-53
2022/10/08 03:01:37;;;;;;;0.50;0.50;;;;;;;;;;4967496;28;88104;-54
2022/10/08 03:04:06;;;;;;;1.47;0.80;;;;;;;;;;4967391;28;88624;-54
2022/10/08 03:06:34;;;;;;;0.70;0.70;;;;;;;;;;4962066;28;87725;-54
2022/10/08 03:09:05;;;;;;;0.83;0.40;;;;;;;;;;4962653;28;87779;-55
2022/10/08 03:11:34;;;;;;;0.50;0.50;;;;;;;;;;4963454;28;87007;-55
2022/10/08 03:14:02;;;;;;;0.70;0.70;;;;;;;;;;4962913;28;87059;-55
2022/10/08 03:16:32;;;;;;;1.50;0.70;;;;;;;;;;4963115;28;89054;-54
2022/10/08 03:19:01;;;;;;;1.40;0.77;;;;;;;;;;4962682;28;89035;-54
2022/10/08 03:21:29;;;;;;;1.23;0.60;;;;;;;;;;4962601;28;86928;-55
2022/10/08 03:23:57;;;;;;;1.00;0.73;;;;;;;;;;4963204;28;86775;-54
2022/10/08 03:26:27;;;;;;;0.50;0.50;;;;;;;;;;4961941;28;89920;-54
2022/10/08 03:28:55;;;;;;;0.50;0.50;;;;;;;;;;4962727;28;89559;-55
2022/10/08 03:31:23;;;;;;;1.67;0.97;;;;;;;;;;4962801;28;87062;-54
2022/10/08 03:33:51;;;;;;;1.80;0.73;;;;;;;;;;4959702;28;86963;-54
2022/10/08 03:36:20;;;;;;;1.07;0.77;;;;;;;;;;4962147;28;88070;-54
2022/10/08 03:38:49;;;;;;;2.40;1.00;;;;;;;;;;4962434;28;87950;-54
2022/10/08 03:41:17;;;;;;;3.23;0.70;;;;;;;;;;4962538;28;87018;-55
2022/10/08 03:43:47;;;;;;;1.20;0.67;;;;;;;;;;4963337;28;86035;-55
2022/10/08 03:46:15;;;;;;;1.20;1.07;;;;;;;;;;4962292;28;86955;-54
2022/10/08 03:48:43;;;;;;;0.60;0.60;;;;;;;;;;4961775;28;87673;-54
2022/10/08 03:51:12;;;;;;;0.40;0.40;;;;;;;;;;4962369;28;88377;-54
2022/10/08 03:53:41;;;;;;;0.50;0.50;;;;;;;;;;4962086;28;87069;-55
2022/10/08 03:56:09;;;;;;;1.50;0.90;;;;;;;;;;4962241;28;88939;-54
2022/10/08 03:58:37;;;;;;;1.00;0.63;;;;;;;;;;4962168;28;88755;-54
2022/10/08 04:01:07;;;;;;;1.03;0.60;;;;;;;;;;4962532;28;87083;-53
2022/10/08 04:03:36;;;;;;;1.07;0.70;;;;;;;;;;4962325;28;87022;-55
2022/10/08 04:06:04;;;;;;;0.80;0.40;;;;;;;;;;4962232;28;88136;-55
2022/10/08 04:08:33;;;;;;;0.50;0.47;;;;;;;;;;4962346;28;87615;-55
2022/10/08 04:11:02;;;;;;;0.40;0.40;;;;;;;;;;4962373;28;86832;-55
2022/10/08 04:13:31;;;;;;;0.40;0.40;;;;;;;;;;4961862;28;86945;-55
2022/10/08 04:16:02;;;;;;;1.20;0.67;;;;;;;;;;4961492;28;89493;-56
2022/10/08 04:18:31;;;;;;;1.07;0.70;;;;;;;;;;4956077;28;88949;-55
2022/10/08 04:21:00;;;;;;;0.93;0.60;;;;;;;;;;4956257;28;88955;-54
2022/10/08 04:23:28;;;;;;;1.90;0.73;;;;;;;;;;4961880;28;87210;-55
2022/10/08 04:25:56;;;;;;;0.33;0.30;;;;;;;;;;4962228;28;90078;-56
2022/10/08 04:28:25;;;;;;;1.10;0.63;;;;;;;;;;4961730;28;88534;-55
2022/10/08 04:30:57;;;;;;;1.43;0.83;;;;;;;;;;4963998;28;86930;-54
2022/10/08 04:33:25;;;;;;;1.03;0.80;;;;;;;;;;4961304;28;86348;-54
2022/10/08 04:35:55;;;;;;;0.87;0.43;;;;;;;;;;4961704;28;89335;-54
2022/10/08 04:38:27;;;;;;;0.30;0.30;;;;;;;;;;4962594;28;88808;-55
2022/10/08 04:41:02;;;;;;;0.43;0.37;;;;;;;;;;4949788;28;88018;-55
2022/10/08 04:43:30;;;;;;;0.93;0.70;;;;;;;;;;4972162;28;87138;-55
2022/10/08 04:45:59;;;;;;;0.90;0.60;;;;;;;;;;4971718;28;89087;-54
2022/10/08 04:48:27;;;;;;;1.10;1.00;;;;;;;;;;4974886;28;87762;-53
2022/10/08 04:50:57;;;;;;;0.70;0.70;;;;;;;;;;4978865;28;86886;-54
2022/10/08 04:53:25;;;;;;;2.83;1.37;;;;;;;;;;4974495;28;87066;-55
2022/10/08 04:55:54;;;;;;;1.93;1.10;;;;;;;;;;4975672;28;87979;-54
2022/10/08 04:58:22;;;;;;;1.97;1.57;;;;;;;;;;4972495;28;88595;-54
2022/10/08 05:00:50;;;;;;;2.30;1.57;;;;;;;;;;4965302;28;87026;-54
2022/10/08 05:03:18;;;;;;;1.27;1.17;;;;;;;;;;4965230;28;87013;-55
2022/10/08 05:05:47;;;;;;;2.80;1.97;;;;;;;;;;4964809;28;90116;-55
2022/10/08 05:08:17;;;;;;;3.27;1.50;;;;;;;;;;4964844;28;89817;-55
2022/10/08 05:10:48;;;;;;;3.80;2.10;;;;;;;;;;4965417;28;87029;-54
2022/10/08 05:13:16;;;;;;;2.77;2.27;;;;;;;;;;4963919;28;88690;-56
2022/10/08 05:15:45;;;;;;;4.73;2.97;;;;;;;;;;4963829;28;89307;-55
2022/10/08 05:18:13;;;;;;;5.63;2.57;;;;;;;;;;4964797;28;88787;-56
2022/10/08 05:20:41;;;;;;;3.10;2.10;;;;;;;;;;4968327;28;86996;-55
2022/10/08 05:23:09;;;;;;;3.70;3.07;;;;;;;;;;4975776;28;86342;-54
2022/10/08 05:25:39;;;;;;;5.10;2.80;;;;;;;;;;4964410;28;89040;-52
2022/10/08 05:28:07;;;;;;;5.30;2.37;;;;;;;;;;4963647;28;87977;-55
2022/10/08 05:30:36;;;;;;;5.20;3.40;;;;;;;;;;4963255;28;87980;-54
2022/10/08 05:33:04;;;;;;;5.03;3.00;;;;;;;;;;4964549;28;87058;-54
2022/10/08 05:35:32;;;;;;;6.13;3.57;;;;;;;;;;4964580;28;87847;-54
2022/10/08 05:38:00;;;;;;;5.43;2.73;;;;;;;;;;4964648;28;88975;-53
2022/10/08 05:40:29;;;;;;;7.37;3.73;;;;;;;;;;4964696;28;87071;-54
2022/10/08 05:42:59;;;;;;;2.97;2.50;;;;;;;;;;4964022;28;87003;-54
2022/10/08 05:45:27;;;;;;;4.37;2.60;;;;;;;;;;4963844;28;89089;-55
2022/10/08 05:47:55;;;;;;;3.97;2.67;;;;;;;;;;4964095;28;86386;-56
2022/10/08 05:50:23;;;;;;;5.90;3.73;;;;;;;;;;4963648;28;87635;-56
2022/10/08 05:52:52;;;;;;;6.07;3.10;;;;;;;;;;4963865;28;87069;-56
2022/10/08 05:55:20;;;;;;;5.70;3.07;;;;;;;;;;4963878;28;90128;-55
2022/10/08 05:57:48;;;;;;;3.30;2.33;;;;;;;;;;4963332;28;88306;-55
2022/10/08 06:00:18;;;;;;;5.13;2.97;;;;;;;;;;4963114;28;86867;-54
2022/10/08 06:02:46;;;;;;;3.47;2.60;;;;;;;;;;4963649;28;87740;-55
2022/10/08 06:05:15;;;;;;;5.47;2.70;;;;;;;;;;4963718;28;89153;-54
2022/10/08 06:07:43;;;;;;;3.73;2.17;;;;;;;;;;4963687;28;87983;-55
2022/10/08 06:10:11;;;;;;;3.43;2.40;;;;;;;;;;4966616;28;87036;-56
2022/10/08 06:12:40;;;;;;;3.77;2.93;;;;;;;;;;4964270;28;86442;-56
2022/10/08 06:15:08;;;;;;;5.80;3.13;;;;;;;;;;4963853;28;87846;-55
2022/10/08 06:17:38;;;;;;;5.03;2.67;;;;;;;;;;4962741;28;87637;-55
2022/10/08 06:20:07;;;;;;;3.97;3.00;;;;;;;;;;4942964;28;89030;-55
2022/10/08 06:22:36;;;;;;;5.50;2.77;;;;;;;;;;4963330;28;87032;-56
2022/10/08 06:25:04;;;;;;;5.03;2.27;;;;;;;;;;4963610;28;89219;-54
2022/10/08 06:27:33;;;;;;;3.47;2.87;;;;;;;;;;4963485;28;88847;-54
2022/10/08 06:30:01;;;;;;;4.00;2.47;;;;;;;;;;4962942;28;86850;-56
2022/10/08 06:32:29;;;;;;;4.60;2.90;;;;;;;;;;4963417;28;87053;-55
2022/10/08 06:34:59;;;;;;;6.60;2.87;;;;;;;;;;4963060;28;88918;-54
2022/10/08 06:37:27;;;;;;;3.83;2.47;;;;;;;;;;4963604;28;87914;-56
2022/10/08 06:39:55;;;;;;;4.80;3.20;;;;;;;;;;4964232;28;86890;-55
2022/10/08 06:42:24;;;;;;;4.20;2.70;;;;;;;;;;4963820;28;87150;-56
2022/10/08 06:44:52;;;;;;;6.73;2.90;;;;;;;;;;4962110;28;89952;-59
2022/10/08 06:47:20;;;;;;;5.00;2.87;;;;;;;;;;4962996;28;88203;-55
2022/10/08 06:49:48;;;;;;;4.63;2.17;;;;;;;;;;4963035;28;87022;-56
2022/10/08 06:52:18;;;;;;;4.17;2.30;;;;;;;;;;4963443;28;87039;-54
2022/10/08 06:54:46;;;;;;;8.00;2.77;;;;;;;;;;4963386;28;89249;-53
2022/10/08 06:57:15;;;;;;;4.43;2.20;;;;;;;;;;4963287;28;88885;-54
2022/10/08 06:59:43;;;;;;;5.10;2.20;;;;;;;;;;4962526;28;86823;-54
2022/10/08 07:02:11;;;;;;;6.30;2.60;;;;;;;;;;4963092;28;86571;-54
2022/10/08 07:04:40;;;;;;;5.67;2.67;;;;;;;;;;4963308;28;88606;-55
2022/10/08 07:07:08;;;;;;;3.10;1.93;;;;;;;;;;4962625;28;87211;-55
2022/10/08 07:09:37;;;;;;;7.57;2.73;;;;;;;;;;4962083;28;88063;-55
2022/10/08 07:12:06;;;;;;;5.20;1.87;;;;;;;;;;4962446;28;87103;-54
2022/10/08 07:14:34;;;;;;;3.93;1.90;;;;;;;;;;4961975;28;89096;-54
2022/10/08 07:17:05;;;;;;;9.47;2.93;;;;;;;;;;4962270;28;88836;-55
2022/10/08 07:19:33;;;;;;;6.30;2.10;;;;;;;;;;4962467;28;87366;-55
2022/10/08 07:22:01;;;;;;;2.70;1.63;;;;;;;;;;4962109;28;87166;-55
2022/10/08 07:24:29;;;;;;;2.37;1.33;;;;;;;;;;4962224;28;88105;-55
2022/10/08 07:26:59;;;;;;;4.43;1.70;;;;;;;;;;4962315;28;88787;-54
2022/10/08 07:29:27;;;;;;;2.57;1.33;;;;;;;;;;4962717;28;86909;-54
2022/10/08 07:31:56;;;;;;;2.20;1.90;;;;;;;;;;4961937;28;87028;-55
2022/10/08 07:34:24;;;;;;;1.80;1.70;;;;;;;;;;4960954;28;90009;-54
2022/10/08 07:36:52;;;;;;;6.67;1.80;;;;;;;;;;4962169;28;88708;-54
2022/10/08 07:39:21;;;;;;;2.03;1.47;;;;;;;;;;4962830;28;86952;-56
2022/10/08 07:41:49;;;;;;;5.03;1.27;;;;;;;;;;4962453;28;87011;-55
2022/10/08 07:44:19;;;;;;;1.67;1.00;;;;;;;;;;4961978;28;89153;-54
2022/10/08 07:46:47;;;;;;;2.73;1.20;;;;;;;;;;4962764;28;87967;-56
2022/10/08 07:49:16;;;;;;;2.30;1.83;;;;;;;;;;4962038;28;87086;-55
2022/10/08 07:51:44;;;;;;;3.23;1.77;;;;;;;;;;4962879;28;86284;-55
2022/10/08 07:54:12;;;;;;;3.93;1.77;;;;;;;;;;4961404;28;88959;-56
2022/10/08 07:56:41;;;;;;;7.40;1.87;;;;;;;;;;4961858;28;87720;-55
2022/10/08 07:59:13;;;;;;;6.03;1.97;;;;;;;;;;4961626;28;87986;-55
2022/10/08 08:01:43;;;;;;;6.00;1.70;;;;;;;;;;4961764;28;86999;-53
2022/10/08 08:04:11;;;;;;;2.73;2.17;;;;;;;;;;4961851;28;87525;-55
2022/10/08 08:06:41;;;;;;;2.53;2.00;;;;;;;;;;4961712;28;87634;-55
2022/10/08 08:09:09;;;;;;;5.70;2.13;;;;;;;;;;4961806;28;86891;-54
2022/10/08 08:11:38;;;;;;;2.07;1.33;;;;;;;;;;4962118;28;86970;-54
2022/10/08 08:14:07;;;;;;;3.67;1.47;;;;;;;;;;4946324;28;89096;-58
2022/10/08 08:16:35;;;;;;;4.03;2.20;;;;;;;;;;4961673;28;88761;-56
2022/10/08 08:19:05;;;;;;;3.13;2.10;;;;;;;;;;4961545;28;87095;-56
2022/10/08 08:21:34;;;;;;;3.00;1.73;;;;;;;;;;4964035;28;87598;-54
2022/10/08 08:24:03;;;;;;;4.20;1.80;;;;;;;;;;4961852;28;90139;-54
2022/10/08 08:26:32;;;;;;;3.13;2.10;;;;;;;;;;4958906;28;88761;-55
2022/10/08 08:29:01;;;;;;;4.93;1.80;;;;;;;;;;4960782;28;86985;-55
2022/10/08 08:31:30;;;;;;;1.87;1.43;;;;;;;;;;4961131;28;87069;-54
2022/10/08 08:33:58;;;;;;;2.70;1.70;;;;;;;;;;4961157;28;88092;-54
2022/10/08 08:36:28;;;;;;;1.83;1.40;;;;;;;;;;4960799;28;86834;-55
2022/10/08 08:38:57;;;;;;;2.07;1.20;;;;;;;;;;4961884;28;86996;-55
2022/10/08 08:41:49;;;;;;;2.90;1.37;;;;;;;;;;4961649;28;87325;-54
2022/10/08 08:44:19;;;;;;;2.97;1.60;;;;;;;;;;4949021;28;87842;-54
2022/10/08 08:46:49;;;;;;;3.40;2.30;;;;;;;;;;4961412;28;87952;-54
2022/10/08 08:49:19;;;;;;;3.93;2.13;;;;;;;;;;4961334;28;87645;-54
2022/10/08 08:51:49;;;;;;;5.50;1.57;;;;;;;;;;4961532;28;86918;-54
2022/10/08 08:54:17;;;;;;;4.07;1.83;;;;;;;;;;4960562;28;87709;-55
2022/10/08 08:56:45;;;;;;;2.77;1.47;;;;;;;;;;4960413;28;88352;-54
2022/10/08 08:59:20;;;;;;;1.90;1.20;;;;;;;;;;4961798;28;87859;-55
2022/10/08 09:01:48;;;;;;;4.97;1.30;;;;;;;;;;4961209;28;87041;-54
2022/10/08 09:04:17;;;;;;;2.47;1.53;;;;;;;;;;4961002;28;87729;-54
2022/10/08 09:06:46;;;;;;;3.50;1.37;;;;;;;;;;4961373;28;86351;-55
2022/10/08 09:09:20;;;;;;;2.23;1.37;;;;;;;;;;4961524;28;87026;-54
2022/10/08 09:11:48;;;;;;;1.50;1.40;;;;;;;;;;4961319;28;87021;-54
2022/10/08 09:14:28;;;;;;;2.17;1.40;;;;;;;;;;4959753;28;90165;-53
2022/10/08 09:16:56;;;;;;;1.80;1.30;;;;;;;;;;4961277;28;88679;-57
2022/10/08 09:19:25;;;;;;;5.50;1.77;;;;;;;;;;4960804;28;87026;-54
2022/10/08 09:21:53;;;;;;;2.53;1.30;;;;;;;;;;4960218;28;87179;-55
2022/10/08 09:24:23;;;;;;;3.43;1.20;;;;;;;;;;4961495;28;89200;-54
2022/10/08 09:26:51;;;;;;;2.20;1.60;;;;;;;;;;4963935;28;88655;-55
2022/10/08 09:29:30;;;;;;;3.93;2.07;;;;;;;;;;4964101;28;87054;-55
2022/10/08 09:31:59;;;;;;;2.73;1.47;;;;;;;;;;4964500;28;86209;-55
2022/10/08 09:34:27;;;;;;;1.77;1.47;;;;;;;;;;4963647;28;87964;-54
2022/10/08 09:37:03;;;;;;;3.17;1.67;;;;;;;;;;4963742;28;87815;-54
2022/10/08 09:39:33;;;;;;;2.60;1.40;;;;;;;;;;4964569;28;87989;-55
2022/10/08 09:42:09;;;;;;;2.30;1.63;;;;;;;;;;4963887;28;87002;-54
2022/10/08 09:44:39;;;;;;;4.30;1.80;;;;;;;;;;4962907;28;89156;-54
2022/10/08 09:47:10;;;;;;;4.37;1.60;;;;;;;;;;4962720;28;87390;-56
2022/10/08 09:49:39;;;;;;;4.33;1.73;;;;;;;;;;4962674;28;87012;-55
2022/10/08 09:52:07;;;;;;;1.23;1.13;;;;;;;;;;4963467;28;87094;-56
2022/10/08 09:54:45;;;;;;;2.63;1.67;;;;;;;;;;4961441;28;88082;-56
2022/10/08 09:57:14;;;;;;;4.00;1.87;;;;;;;;;;4963627;28;88651;-55
2022/10/08 09:59:43;;;;;;;5.33;2.30;;;;;;;;;;4964005;28;87063;-55
2022/10/08 10:02:22;;;;;;;3.40;1.83;;;;;;;;;;4963673;28;86932;-55
2022/10/08 10:04:51;;;;;;;4.23;1.90;;;;;;;;;;4963206;28;89768;-55
2022/10/08 10:07:19;;;;;;;7.33;2.30;;;;;;;;;;4963977;28;89794;-55
2022/10/08 10:09:50;;;;;;;4.10;2.00;;;;;;;;;;4964405;28;87100;-53
2022/10/08 10:12:20;;;;;;;4.00;2.17;;;;;;;;;;4964261;28;87128;-55
2022/10/08 10:14:50;;;;;;;2.40;1.70;;;;;;;;;;4963896;28;87887;-55
2022/10/08 10:17:20;;;;;;;2.63;1.63;;;;;;;;;;4964556;28;87558;-58
2022/10/08 10:19:50;;;;;;;5.23;2.07;;;;;;;;;;4964211;28;86975;-56
2022/10/08 10:22:20;;;;;;;3.03;1.67;;;;;;;;;;4965094;28;86206;-57
2022/10/08 10:24:51;;;;;;;2.10;1.43;;;;;;;;;;4964013;28;89139;-56
2022/10/08 10:27:20;;;;;;;4.27;1.60;;;;;;;;;;4963752;28;87593;-56
2022/10/08 10:29:50;;;;;;;3.43;1.50;;;;;;;;;;4962623;28;87806;-56
2022/10/08 10:32:19;;;;;;;4.43;2.20;;;;;;;;;;4963918;28;87093;-56
2022/10/08 10:34:51;;;;;;;3.20;1.87;;;;;;;;;;4963927;28;88078;-55
2022/10/08 10:37:20;;;;;;;3.00;1.70;;;;;;;;;;4962739;28;89027;-54
2022/10/08 10:39:49;;;;;;;1.37;1.23;;;;;;;;;;4964279;28;86767;-54
2022/10/08 10:42:20;;;;;;;4.03;1.60;;;;;;;;;;4963604;28;86920;-56
2022/10/08 10:44:50;;;;;;;1.83;1.10;;;;;;;;;;4962298;28;88976;-53
2022/10/08 10:47:18;;;;;;;2.83;1.73;;;;;;;;;;4964081;28;87637;-55
2022/10/08 10:49:47;;;;;;;2.63;1.27;;;;;;;;;;4964366;28;86771;-54
2022/10/08 10:52:21;;;;;;;4.07;2.03;;;;;;;;;;4963966;28;87017;-55
2022/10/08 10:54:54;;;;;;;2.80;1.50;;;;;;;;;;4963070;28;88648;-56
2022/10/08 10:57:27;;;;;;;4.27;1.40;;;;;;;;;;4963062;28;88665;-55
2022/10/08 10:59:58;;;;;;;2.90;1.70;;;;;;;;;;4963116;28;87015;-54
2022/10/08 11:02:27;;;;;;;2.80;1.53;;;;;;;;;;4963603;28;87009;-55
2022/10/08 11:04:58;;;;;;;1.47;1.10;;;;;;;;;;4963159;28;89038;-55
2022/10/08 11:07:44;;;;;;;1.50;1.20;;;;;;;;;;4963121;28;87714;-54
2022/10/08 11:10:16;;;;;;;6.47;2.10;;;;;;;;;;4961145;28;86929;-55
2022/10/08 11:12:47;;;;;;;2.87;1.70;;;;;;;;;;4963562;28;86353;-56
2022/10/08 11:15:19;;;;;;;2.73;1.53;;;;;;;;;;4962876;28;89070;-55
2022/10/08 11:17:51;;;;;;;3.33;1.87;;;;;;;;;;4962941;28;87835;-54
2022/10/08 11:20:36;;;;;;;2.33;1.30;;;;;;;;;;4962925;28;87858;-55
2022/10/08 11:23:07;;;;;;;1.50;1.37;;;;;;;;;;4963535;28;86972;-54
2022/10/08 11:25:36;;;;;;;2.37;1.47;;;;;;;;;;4962837;28;87911;-54
2022/10/08 11:28:28;;;;;;;4.33;1.87;;;;;;;;;;4962230;28;87552;-56
2022/10/08 11:30:58;;;;;;;5.33;2.07;;;;;;;;;;4962813;28;87002;-55
2022/10/08 11:33:26;;;;;;;3.73;1.80;;;;;;;;;;4963412;28;87002;-56
2022/10/08 11:36:00;;;;;;;5.37;1.60;;;;;;;;;;4962800;28;89004;-55
2022/10/08 11:38:30;;;;;;;2.30;1.47;;;;;;;;;;4963154;28;87900;-55
2022/10/08 11:41:00;;;;;;;2.07;1.37;;;;;;;;;;4963151;28;87170;-55
2022/10/08 11:43:30;;;;;;;4.43;2.03;;;;;;;;;;4963161;28;86841;-55
2022/10/08 11:46:27;;;;;;;3.50;2.03;;;;;;;;;;4962438;28;88872;-56
2022/10/08 11:48:56;;;;;;;7.30;2.03;;;;;;;;;;4949989;28;88737;-55
2022/10/08 11:51:28;;;;;;;3.40;1.27;;;;;;;;;;4979252;28;86959;-55
2022/10/08 11:54:03;;;;;;;1.97;1.43;;;;;;;;;;4982326;28;87030;-55
2022/10/08 11:56:31;;;;;;;4.20;1.73;;;;;;;;;;4981720;28;88970;-55
2022/10/08 11:59:02;;;;;;;3.43;1.47;;;;;;;;;;4981970;28;87985;-56
2022/10/08 12:01:30;;;;;;;2.83;1.47;;;;;;;;;;4962897;28;87006;-55
2022/10/08 12:04:03;;;;;;;1.90;1.03;;;;;;;;;;4960915;28;86739;-54
2022/10/08 12:06:33;;;;;;;3.43;1.37;;;;;;;;;;4961223;28;88967;-55
2022/10/08 12:09:02;;;;;;;2.07;1.40;;;;;;;;;;4961363;28;88712;-55
2022/10/08 12:11:52;;;;;;;1.53;1.10;;;;;;;;;;4961336;28;88156;-56
2022/10/08 12:14:36;;;;;;;5.67;1.70;;;;;;;;;;4962037;28;86885;-55
2022/10/08 12:17:08;;;;;;;4.47;1.70;;;;;;;;;;4961888;28;87899;-57
2022/10/08 12:19:42;;;;;;;2.93;1.80;;;;;;;;;;4962202;28;87576;-56
2022/10/08 12:22:25;;;;;;;3.70;1.80;;;;;;;;;;4962592;28;87114;-55
2022/10/08 12:24:55;;;;;;;3.17;1.63;;;;;;;;;;4961786;28;86756;-56
2022/10/08 12:27:30;;;;;;;1.77;1.67;;;;;;;;;;4962068;28;87967;-55
2022/10/08 12:30:00;;;;;;;2.63;1.60;;;;;;;;;;4961975;28;88667;-55
2022/10/08 12:32:31;;;;;;;3.27;1.50;;;;;;;;;;4962129;28;86918;-54
2022/10/08 12:35:00;;;;;;;4.90;2.40;;;;;;;;;;4961268;28;87109;-57
2022/10/08 12:37:41;;;;;;;5.37;1.90;;;;;;;;;;4961299;28;90038;-54
2022/10/08 12:40:11;;;;;;;4.87;1.90;;;;;;;;;;4961545;28;89622;-54
2022/10/08 12:42:40;;;;;;;6.93;2.77;;;;;;;;;;4961688;28;87032;-55
2022/10/08 12:45:14;;;;;;;6.33;2.50;;;;;;;;;;4962231;28;86973;-55
2022/10/08 12:47:45;;;;;;;3.87;2.37;;;;;;;;;;4960204;28;89313;-56
2022/10/08 12:50:20;;;;;;;16.90;2.67;;;;;;;;;;4961652;28;87693;-55
2022/10/08 12:52:49;;;;;;;3.83;2.50;;;;;;;;;;4962109;28;87120;-55
2022/10/08 12:55:18;;;;;;;4.87;2.60;;;;;;;;;;4962641;28;86281;-55
2022/10/08 12:57:47;;;;;;;5.47;2.57;;;;;;;;;;4960943;28;88236;-55
2022/10/08 13:00:21;;;;;;;7.13;2.40;;;;;;;;;;4963089;28;87031;-55
2022/10/08 13:02:59;;;;;;;5.07;2.43;;;;;;;;;;4963607;28;88162;-56
2022/10/08 13:05:28;;;;;;;2.90;2.40;;;;;;;;;;4964859;28;87085;-54
2022/10/08 13:07:56;;;;;;;5.00;2.43;;;;;;;;;;4963666;28;89057;-55
2022/10/08 13:10:25;;;;;;;5.43;2.47;;;;;;;;;;4964562;28;87977;-55
2022/10/08 13:13:00;;;;;;;3.20;2.13;;;;;;;;;;4964773;28;87090;-55
2022/10/08 13:15:31;;;;;;;4.53;2.40;;;;;;;;;;4964902;28;87021;-55
2022/10/08 13:17:59;;;;;;;5.50;2.00;;;;;;;;;;4964314;28;90518;-55
2022/10/08 13:20:28;;;;;;;5.43;2.43;;;;;;;;;;4964970;28;88932;-55
2022/10/08 13:22:56;;;;;;;8.20;2.93;;;;;;;;;;4964741;28;86985;-55
2022/10/08 13:25:34;;;;;;;4.10;1.67;;;;;;;;;;4964254;28;87024;-54
2022/10/08 13:28:10;;;;;;;2.60;1.70;;;;;;;;;;4963704;28;90016;-56
2022/10/08 13:30:39;;;;;;;2.17;1.80;;;;;;;;;;4963204;28;88930;-56
2022/10/08 13:33:12;;;;;;;5.77;2.03;;;;;;;;;;4949985;28;87184;-59
2022/10/08 13:35:41;;;;;;;4.83;2.23;;;;;;;;;;4965100;28;86929;-55
2022/10/08 13:38:09;;;;;;;3.13;1.77;;;;;;;;;;4964143;28;89065;-55
2022/10/08 13:40:38;;;;;;;2.30;1.77;;;;;;;;;;4965661;28;87089;-56
2022/10/08 13:43:06;;;;;;;5.27;1.73;;;;;;;;;;4970960;28;86928;-55
2022/10/08 13:45:36;;;;;;;3.50;1.63;;;;;;;;;;4974151;28;86398;-54
2022/10/08 13:48:06;;;;;;;6.23;2.50;;;;;;;;;;4969299;28;89169;-55
2022/10/08 13:50:37;;;;;;;3.07;1.57;;;;;;;;;;4963317;28;91522;-55
2022/10/08 13:53:05;;;;;;;3.63;2.40;;;;;;;;;;4964065;28;87850;-55
2022/10/08 13:55:34;;;;;;;8.33;1.67;;;;;;;;;;4964142;28;88528;-54
2022/10/08 13:58:03;;;;;;;5.80;1.67;;;;;;;;;;4963538;28;88419;-55
2022/10/08 14:00:32;;;;;;;5.87;1.97;;;;;;;;;;4964284;28;87562;-55
2022/10/08 14:03:01;;;;;;;4.83;2.43;;;;;;;;;;4963609;28;87156;-55
2022/10/08 14:05:30;;;;;;;4.00;2.00;;;;;;;;;;4963940;28;87031;-55
2022/10/08 14:07:59;;;;;;;2.57;1.57;;;;;;;;;;4963266;28;89015;-57
2022/10/08 14:10:27;;;;;;;2.43;2.23;;;;;;;;;;4963006;28;88522;-55
2022/10/08 14:12:57;;;;;;;4.73;1.63;;;;;;;;;;4963778;28;87264;-56
2022/10/08 14:15:26;;;;;;;4.47;2.00;;;;;;;;;;4963784;28;87004;-56
2022/10/08 14:17:54;;;;;;;4.17;2.17;;;;;;;;;;4962959;28;89905;-56
2022/10/08 14:20:22;;;;;;;3.47;1.93;;;;;;;;;;4963710;28;88620;-56
2022/10/08 14:22:52;;;;;;;5.07;2.33;;;;;;;;;;4963650;28;88901;-57
2022/10/08 14:25:21;;;;;;;3.73;1.70;;;;;;;;;;4963987;28;87048;-56
2022/10/08 14:27:49;;;;;;;2.90;1.93;;;;;;;;;;4963124;28;88896;-55
2022/10/08 14:30:18;;;;;;;6.10;2.80;;;;;;;;;;4962811;28;88941;-55
2022/10/08 14:32:47;;;;;;;5.70;2.37;;;;;;;;;;4963561;28;87159;-56
2022/10/08 14:35:15;;;;;;;4.73;2.20;;;;;;;;;;4963778;28;86279;-55
2022/10/08 14:37:44;;;;;;;7.87;2.87;;;;;;;;;;4962988;28;89102;-55
2022/10/08 14:40:15;;;;;;;4.97;2.67;;;;;;;;;;4962800;28;88019;-55
2022/10/08 14:42:43;;;;;;;5.93;2.47;;;;;;;;;;4963136;28;88121;-55
2022/10/08 14:45:12;;;;;;;7.57;3.00;;;;;;;;;;4963465;28;87020;-57
2022/10/08 14:47:40;;;;;;;4.40;2.47;;;;;;;;;;4962747;28;88056;-55
2022/10/08 14:50:09;;;;;;;4.17;2.60;;;;;;;;;;4962568;28;88584;-54
2022/10/08 14:52:37;;;;;;;6.47;2.67;;;;;;;;;;4963535;28;87023;-54
2022/10/08 14:55:12;;;;;;;3.50;2.33;;;;;;;;;;4962624;28;87939;-55
2022/10/08 14:57:41;;;;;;;3.83;2.70;;;;;;;;;;4962533;28;88994;-53
2022/10/08 15:00:11;;;;;;;4.23;2.00;;;;;;;;;;4944001;28;88882;-54
2022/10/08 15:02:40;;;;;;;5.67;2.50;;;;;;;;;;4960989;28;87055;-54